KR-0434 weather

Vertavill Apartments Heliport
Busan, Busan Gwang'yeogsi, South Korea

Public forecast

Using degrees Celsius for public forecast. Weather courtesy of forecast.io.

METAR (pilot weather report)

Closest report is Gimhae International Airport, 6.0 nm (11.1 km) WNW. Retrieved 2019/09/19 15:00 UTC (58 minutes ago):

RKPK 191500Z 04009KT CAVOK 18/12 Q1016

TAF (pilot weather forecast)

Closest forecast is Gimhae International Airport, 6.0 nm (11.1 km) WNW. Retrieved 2019/09/19 12:00 UTC (4 hours ago):

TAF RKPK 191100Z 1912/2018 03006KT 9999 SCT030 TN19/1921Z TX27/2006Z